createdAt,value
2017-07-09T00:00:24.113Z,65.10
2017-07-09T00:02:53.000Z,65.60
2017-07-09T00:05:21.344Z,66.68
2017-07-09T00:07:49.699Z,66.91
2017-07-09T00:10:18.478Z,66.86
2017-07-09T00:12:46.824Z,66.57
2017-07-09T00:17:50.322Z,67.43
2017-07-09T00:20:18.659Z,68.43
2017-07-09T00:22:47.000Z,68.56
2017-07-09T00:25:15.956Z,69.21
2017-07-09T00:27:44.295Z,68.50
2017-07-09T00:30:12.637Z,68.65
2017-07-09T00:32:41.408Z,68.83
2017-07-09T00:35:09.731Z,68.53
2017-07-09T00:37:38.058Z,68.58
2017-07-09T00:40:07.465Z,68.01
2017-07-09T00:42:35.790Z,67.55
2017-07-09T00:45:04.122Z,67.72
2017-07-09T00:47:33.872Z,67.79
2017-07-09T00:50:02.233Z,67.98
2017-07-09T00:52:30.566Z,67.72
2017-07-09T00:55:00.189Z,68.46
2017-07-09T00:57:28.504Z,67.86
2017-07-09T00:59:56.857Z,67.48
2017-07-09T01:02:25.509Z,67.40
2017-07-09T01:04:53.837Z,67.17
2017-07-09T01:07:22.184Z,67.88
2017-07-09T01:09:51.081Z,67.28
2017-07-09T01:12:19.460Z,67.66
2017-07-09T01:14:48.568Z,67.79
2017-07-09T01:17:18.770Z,67.17
2017-07-09T01:19:47.128Z,67.30
2017-07-09T01:22:15.474Z,67.87
2017-07-09T01:24:44.439Z,67.28
2017-07-09T01:27:12.780Z,67.27
2017-07-09T01:29:41.144Z,68.10
2017-07-09T01:32:10.098Z,67.86
2017-07-09T01:34:38.435Z,67.49
2017-07-09T01:37:06.773Z,67.08
2017-07-09T01:39:35.384Z,67.73
2017-07-09T01:42:03.732Z,67.76
2017-07-09T01:44:32.075Z,67.69
2017-07-09T01:47:00.820Z,67.04
2017-07-09T01:49:29.154Z,67.15
2017-07-09T01:51:57.477Z,67.75
2017-07-09T01:54:26.426Z,67.25
2017-07-09T01:56:54.750Z,66.93
2017-07-09T01:59:23.079Z,67.56
2017-07-09T02:01:52.474Z,67.16
2017-07-09T02:04:20.827Z,67.77
2017-07-09T02:06:49.156Z,67.69
2017-07-09T02:09:18.122Z,67.40
2017-07-09T02:11:46.466Z,67.25
2017-07-09T02:14:14.802Z,66.97
2017-07-09T02:16:43.989Z,66.82
2017-07-09T02:19:12.551Z,66.53
2017-07-09T02:21:40.922Z,66.80
2017-07-09T02:24:09.654Z,66.95
2017-07-09T02:26:37.996Z,66.94
2017-07-09T02:29:06.345Z,66.92
2017-07-09T02:31:34.995Z,67.35
2017-07-09T02:34:03.361Z,67.82
2017-07-09T02:36:31.717Z,67.27
2017-07-09T02:39:00.670Z,67.23
2017-07-09T02:41:29.005Z,67.00
2017-07-09T02:43:57.335Z,67.37
2017-07-09T02:46:26.193Z,67.51
2017-07-09T02:48:54.518Z,67.30
2017-07-09T02:51:22.868Z,67.09
2017-07-09T02:53:51.558Z,67.28
2017-07-09T02:56:19.897Z,66.94
2017-07-09T02:58:48.230Z,66.89
2017-07-09T03:01:17.309Z,66.98
2017-07-09T03:03:45.643Z,66.72
2017-07-09T03:06:13.985Z,67.01
2017-07-09T03:08:42.736Z,67.58
2017-07-09T03:11:11.074Z,68.81
2017-07-09T03:13:39.430Z,68.40
2017-07-09T03:16:08.163Z,68.97
2017-07-09T03:18:36.543Z,69.39
2017-07-09T03:21:04.902Z,69.61
2017-07-09T03:23:33.904Z,69.56
2017-07-09T03:26:03.016Z,69.45
2017-07-09T03:28:31.323Z,69.62
2017-07-09T03:31:00.284Z,69.67
2017-07-09T03:33:28.623Z,70.01
2017-07-09T03:35:56.982Z,69.71
2017-07-09T03:38:25.725Z,69.67
2017-07-09T03:40:54.082Z,69.67
2017-07-09T03:43:22.422Z,69.31
2017-07-09T03:45:51.545Z,69.40
2017-07-09T03:48:19.882Z,69.05
2017-07-09T03:50:48.209Z,69.44
2017-07-09T03:53:16.847Z,69.58
2017-07-09T03:55:45.238Z,70.78
2017-07-09T03:58:13.614Z,70.55
2017-07-09T04:00:42.478Z,71.02
2017-07-09T04:03:10.823Z,71.18
2017-07-09T04:05:39.175Z,70.92
2017-07-09T04:08:08.238Z,71.33
2017-07-09T04:10:36.582Z,70.62
2017-07-09T04:13:04.940Z,70.27
2017-07-09T04:15:33.586Z,70.03
2017-07-09T04:18:01.914Z,69.57
2017-07-09T04:20:30.241Z,69.40
2017-07-09T04:22:59.018Z,68.81
2017-07-09T04:25:27.383Z,68.39
2017-07-09T04:27:56.497Z,68.73
2017-07-09T04:30:25.345Z,68.98
2017-07-09T04:32:53.685Z,68.28
2017-07-09T04:35:22.024Z,68.10
2017-07-09T04:37:50.924Z,68.72
2017-07-09T04:40:19.266Z,68.63
2017-07-09T04:42:47.625Z,68.32
2017-07-09T04:45:16.266Z,67.95
2017-07-09T04:47:45.361Z,66.90
2017-07-09T04:50:14.483Z,66.60
2017-07-09T04:52:43.168Z,65.89
2017-07-09T04:55:11.494Z,64.52
2017-07-09T04:57:39.855Z,62.97
2017-07-09T05:00:08.695Z,62.67
2017-07-09T05:02:37.030Z,62.57
2017-07-09T05:05:05.401Z,62.47
2017-07-09T05:07:34.337Z,62.73
2017-07-09T05:10:02.683Z,62.79
2017-07-09T05:12:31.028Z,62.56
2017-07-09T05:14:59.996Z,61.68
2017-07-09T05:17:28.330Z,60.89
2017-07-09T05:19:56.676Z,60.92
2017-07-09T05:22:25.515Z,61.28
2017-07-09T05:24:53.860Z,61.75
2017-07-09T05:27:22.191Z,61.81
2017-07-09T05:29:51.112Z,62.17
2017-07-09T05:32:19.460Z,62.31
2017-07-09T05:34:47.852Z,62.42
2017-07-09T05:37:16.699Z,61.44
2017-07-09T05:39:45.033Z,60.78
2017-07-09T05:42:13.364Z,61.17
2017-07-09T05:44:42.056Z,60.89
2017-07-09T05:47:10.392Z,60.07
2017-07-09T05:49:38.715Z,58.83
2017-07-09T05:52:07.434Z,57.88
2017-07-09T05:54:35.775Z,58.14
2017-07-09T05:57:04.105Z,56.95
2017-07-09T05:59:32.911Z,57.56
2017-07-09T06:02:01.232Z,56.74
2017-07-09T06:04:29.563Z,57.08
2017-07-09T06:06:58.173Z,56.57
2017-07-09T06:09:26.509Z,55.71
2017-07-09T06:11:54.845Z,55.17
2017-07-09T06:14:23.560Z,53.89
2017-07-09T06:16:51.886Z,53.49
2017-07-09T06:19:20.232Z,54.34
2017-07-09T06:21:49.219Z,54.75
2017-07-09T06:24:17.565Z,53.36
2017-07-09T06:26:45.902Z,54.08
2017-07-09T06:29:14.601Z,53.05
2017-07-09T06:31:42.956Z,52.37
2017-07-09T06:34:11.295Z,53.31
2017-07-09T06:36:40.723Z,53.57
2017-07-09T06:39:09.060Z,52.16
2017-07-09T06:41:37.394Z,52.81
2017-07-09T06:44:06.572Z,54.58
2017-07-09T06:46:34.919Z,52.49
2017-07-09T06:49:03.289Z,51.94
2017-07-09T06:51:32.013Z,52.27
2017-07-09T06:54:00.391Z,52.54
2017-07-09T06:56:29.497Z,51.68
2017-07-09T06:58:58.108Z,52.55
2017-07-09T07:01:26.463Z,53.14
2017-07-09T07:03:54.793Z,51.65
2017-07-09T07:06:23.932Z,51.24
2017-07-09T07:08:52.266Z,51.58
2017-07-09T07:11:20.620Z,51.08
2017-07-09T07:13:49.582Z,50.61
2017-07-09T07:16:17.913Z,48.91
2017-07-09T07:18:46.234Z,48.58
2017-07-09T07:21:15.736Z,49.70
2017-07-09T07:23:44.835Z,49.14
2017-07-09T07:26:13.938Z,48.84
2017-07-09T07:28:42.686Z,49.18
2017-07-09T07:31:11.038Z,48.35
2017-07-09T07:33:39.377Z,48.10
2017-07-09T07:36:08.773Z,47.98
2017-07-09T07:38:37.109Z,48.20
2017-07-09T07:41:05.441Z,47.00
2017-07-09T07:43:34.238Z,47.75
2017-07-09T07:46:02.582Z,48.90
2017-07-09T07:48:30.916Z,47.71
2017-07-09T07:50:59.723Z,48.27
2017-07-09T07:53:28.065Z,47.37
2017-07-09T07:55:56.408Z,47.38
2017-07-09T07:58:25.030Z,45.78
2017-07-09T08:00:53.383Z,44.94
2017-07-09T08:03:21.724Z,44.49
2017-07-09T08:05:50.346Z,45.23
2017-07-09T08:08:18.686Z,45.17
2017-07-09T08:10:47.014Z,45.19
2017-07-09T08:13:15.766Z,46.01
2017-07-09T08:15:44.101Z,45.48
2017-07-09T08:18:12.457Z,44.84
2017-07-09T08:20:41.088Z,43.09
2017-07-09T08:23:09.414Z,42.75
2017-07-09T08:25:37.846Z,42.83
2017-07-09T08:28:06.706Z,42.20
2017-07-09T08:30:35.039Z,42.47
2017-07-09T08:33:03.375Z,43.10
2017-07-09T08:35:32.102Z,43.19
2017-07-09T08:38:00.464Z,41.56
2017-07-09T08:40:28.801Z,40.38
2017-07-09T08:42:57.576Z,40.64
2017-07-09T08:45:25.908Z,40.82
2017-07-09T08:47:54.241Z,40.18
2017-07-09T08:50:23.181Z,39.83
2017-07-09T08:52:51.526Z,39.26
2017-07-09T08:55:19.859Z,38.75
2017-07-09T08:57:48.531Z,38.64
2017-07-09T09:00:16.885Z,39.41
2017-07-09T09:02:45.233Z,39.48
2017-07-09T09:05:13.926Z,39.01
2017-07-09T09:07:42.240Z,39.19
2017-07-09T09:10:10.589Z,38.88
2017-07-09T09:12:39.237Z,38.45
2017-07-09T09:15:07.575Z,38.45
2017-07-09T09:17:35.918Z,38.80
2017-07-09T09:20:05.030Z,37.88
2017-07-09T09:22:33.370Z,37.98
2017-07-09T09:25:02.545Z,37.44
2017-07-09T09:27:31.230Z,36.78
2017-07-09T09:29:59.588Z,37.29
2017-07-09T09:32:27.965Z,37.07
2017-07-09T09:34:56.589Z,36.70
2017-07-09T09:37:24.932Z,36.02
2017-07-09T09:39:53.276Z,34.89
2017-07-09T09:42:22.071Z,36.14
2017-07-09T09:44:50.434Z,36.18
2017-07-09T09:47:18.811Z,36.34
2017-07-09T09:49:48.239Z,36.56
2017-07-09T09:52:16.586Z,37.53
2017-07-09T09:54:45.709Z,36.94
2017-07-09T09:57:14.358Z,37.03
2017-07-09T09:59:42.682Z,36.49
2017-07-09T10:02:11.032Z,35.21
2017-07-09T10:04:39.899Z,35.13
2017-07-09T10:07:08.237Z,33.57
2017-07-09T10:09:36.639Z,33.30
2017-07-09T10:12:05.273Z,32.92
2017-07-09T10:14:33.597Z,33.09
2017-07-09T10:17:01.978Z,33.34
2017-07-09T10:19:30.647Z,33.96
2017-07-09T10:21:58.978Z,33.69
2017-07-09T10:24:27.348Z,32.70
2017-07-09T10:26:57.303Z,33.04
2017-07-09T10:29:25.646Z,33.45
2017-07-09T10:31:54.034Z,32.64
2017-07-09T10:34:22.661Z,32.59
2017-07-09T10:36:51.022Z,33.42
2017-07-09T10:39:19.446Z,33.69
2017-07-09T10:41:48.120Z,33.65
2017-07-09T10:44:16.452Z,33.80
2017-07-09T10:46:44.988Z,33.48
2017-07-09T10:49:13.718Z,33.19
2017-07-09T10:51:42.070Z,34.25
2017-07-09T10:54:10.449Z,33.54
2017-07-09T10:56:39.072Z,33.68
2017-07-09T10:59:07.459Z,33.26
2017-07-09T11:01:36.642Z,32.76
2017-07-09T11:04:05.266Z,31.36
2017-07-09T11:06:33.672Z,31.48
2017-07-09T11:09:02.013Z,30.30
2017-07-09T11:11:30.730Z,30.26
2017-07-09T11:13:59.062Z,31.46
2017-07-09T11:16:27.458Z,31.57
2017-07-09T11:18:56.124Z,31.35
2017-07-09T11:21:24.484Z,32.22
2017-07-09T11:23:52.843Z,31.46
2017-07-09T11:26:21.714Z,30.86
2017-07-09T11:28:50.104Z,30.84
2017-07-09T11:31:18.434Z,31.56
2017-07-09T11:33:47.547Z,30.43
2017-07-09T11:36:15.928Z,29.23
2017-07-09T11:38:44.250Z,29.22
2017-07-09T11:41:12.925Z,29.48
2017-07-09T11:43:41.310Z,29.33
2017-07-09T11:46:09.643Z,28.27
2017-07-09T11:48:38.271Z,27.63
2017-07-09T11:51:06.623Z,27.75
2017-07-09T11:53:34.964Z,28.52
2017-07-09T11:56:03.815Z,28.60
2017-07-09T11:58:32.182Z,28.32
2017-07-09T12:01:00.535Z,27.61
2017-07-09T12:03:29.324Z,27.78
2017-07-09T12:05:57.664Z,27.12
2017-07-09T12:08:26.017Z,27.37
2017-07-09T12:10:54.763Z,27.81
2017-07-09T12:13:23.095Z,27.60
2017-07-09T12:15:51.454Z,27.06
2017-07-09T12:18:20.265Z,27.17
2017-07-09T12:20:48.611Z,28.22
2017-07-09T12:23:16.946Z,27.75
2017-07-09T12:25:45.683Z,27.35
2017-07-09T12:28:14.014Z,27.26
2017-07-09T12:30:42.323Z,26.50
2017-07-09T12:33:11.084Z,27.11
2017-07-09T12:35:39.493Z,28.48
2017-07-09T12:38:07.845Z,28.88
2017-07-09T12:40:36.955Z,28.13
2017-07-09T12:43:05.301Z,27.39
2017-07-09T12:45:33.638Z,26.99
2017-07-09T12:48:02.275Z,27.43
2017-07-09T12:50:30.622Z,27.29
2017-07-09T12:52:58.954Z,26.92
2017-07-09T12:55:27.600Z,26.65
2017-07-09T12:57:55.947Z,27.12
2017-07-09T13:00:24.302Z,27.80
2017-07-09T13:02:52.992Z,27.39
2017-07-09T13:05:21.348Z,27.71
2017-07-09T13:07:49.687Z,27.60
2017-07-09T13:10:18.346Z,27.32
2017-07-09T13:12:46.701Z,26.85
2017-07-09T13:15:15.817Z,28.09
2017-07-09T13:17:44.478Z,28.48
2017-07-09T13:20:13.613Z,28.47
2017-07-09T13:22:41.943Z,27.73
2017-07-09T13:25:10.928Z,28.59
2017-07-09T13:27:39.284Z,28.41
2017-07-09T13:30:07.633Z,27.78
2017-07-09T13:32:36.394Z,27.99
2017-07-09T13:35:04.751Z,27.67
2017-07-09T13:37:33.087Z,27.39
2017-07-09T13:40:01.716Z,27.52
2017-07-09T13:42:30.064Z,27.60
2017-07-09T13:44:58.411Z,28.04
2017-07-09T13:47:27.259Z,27.23
2017-07-09T13:49:55.608Z,27.15
2017-07-09T13:52:23.941Z,28.13
2017-07-09T13:54:52.602Z,28.31
2017-07-09T13:57:20.957Z,28.39
2017-07-09T13:59:49.430Z,28.79
2017-07-09T14:02:18.102Z,29.66
2017-07-09T14:04:46.437Z,29.66
2017-07-09T14:07:14.779Z,28.69
2017-07-09T14:09:43.737Z,29.55
2017-07-09T14:12:12.072Z,30.14
2017-07-09T14:14:40.428Z,29.36
2017-07-09T14:17:09.106Z,30.96
2017-07-09T14:19:37.457Z,31.82
2017-07-09T14:22:05.802Z,31.30
2017-07-09T14:24:34.491Z,31.34
2017-07-09T14:27:02.824Z,32.13
2017-07-09T14:29:31.198Z,31.39
2017-07-09T14:32:00.027Z,31.01
2017-07-09T14:34:28.373Z,30.98
2017-07-09T14:36:56.720Z,31.79
2017-07-09T14:39:26.102Z,33.02
2017-07-09T14:41:54.457Z,32.35
2017-07-09T14:44:22.806Z,31.27
2017-07-09T14:46:51.524Z,31.43
2017-07-09T14:49:19.859Z,31.77
2017-07-09T14:51:48.202Z,33.20
2017-07-09T14:54:16.875Z,32.18
2017-07-09T14:56:45.201Z,31.80
2017-07-09T14:59:13.536Z,32.46
2017-07-09T15:01:42.469Z,32.28
2017-07-09T15:04:10.838Z,31.97
2017-07-09T15:06:39.937Z,31.94
2017-07-09T15:09:08.874Z,30.68
2017-07-09T15:11:37.216Z,30.96
2017-07-09T15:14:05.550Z,31.80
2017-07-09T15:16:34.442Z,32.28
2017-07-09T15:19:02.794Z,31.83
2017-07-09T15:21:31.175Z,30.98
2017-07-09T15:23:59.818Z,30.68
2017-07-09T15:26:28.159Z,31.36
2017-07-09T15:28:56.525Z,31.90
2017-07-09T15:31:25.291Z,31.76
2017-07-09T15:33:53.620Z,32.24
2017-07-09T15:36:21.959Z,32.29
2017-07-09T15:38:50.918Z,32.55
2017-07-09T15:41:19.256Z,32.53
2017-07-09T15:43:47.602Z,33.06
2017-07-09T15:46:16.288Z,33.13
2017-07-09T15:48:44.627Z,32.92
2017-07-09T15:51:12.960Z,32.94
2017-07-09T15:53:41.603Z,33.08
2017-07-09T15:56:10.901Z,32.84
2017-07-09T15:58:39.351Z,32.90
2017-07-09T16:01:08.507Z,33.08
2017-07-09T16:03:36.847Z,32.48
2017-07-09T16:06:05.948Z,32.79
2017-07-09T16:08:35.586Z,32.74
2017-07-09T16:11:03.952Z,32.74
2017-07-09T16:13:32.308Z,32.87
2017-07-09T16:16:00.937Z,32.43
2017-07-09T16:18:29.278Z,32.38
2017-07-09T16:20:57.613Z,32.46
2017-07-09T16:23:26.865Z,32.43
2017-07-09T16:25:55.186Z,32.46
2017-07-09T16:28:23.509Z,32.30
2017-07-09T16:30:53.143Z,32.54
2017-07-09T16:33:21.484Z,32.58
2017-07-09T16:35:49.835Z,32.64
2017-07-09T16:38:18.577Z,32.92
2017-07-09T16:40:46.910Z,33.75
2017-07-09T16:43:15.230Z,33.48
2017-07-09T16:45:44.085Z,33.45
2017-07-09T16:48:12.459Z,33.78
2017-07-09T16:50:40.799Z,33.71
2017-07-09T16:53:09.538Z,33.57
2017-07-09T16:55:37.871Z,33.55
2017-07-09T16:58:06.205Z,33.71
2017-07-09T17:00:34.916Z,33.89
2017-07-09T17:03:03.268Z,34.24
2017-07-09T17:05:31.595Z,34.83
2017-07-09T17:08:00.485Z,34.87
2017-07-09T17:10:28.843Z,35.64
2017-07-09T17:12:57.177Z,36.32
2017-07-09T17:15:27.036Z,36.96
2017-07-09T17:17:55.388Z,36.29
2017-07-09T17:20:24.490Z,35.93
2017-07-09T17:22:53.884Z,35.77
2017-07-09T17:25:22.221Z,35.07
2017-07-09T17:27:50.576Z,35.17
2017-07-09T17:30:19.527Z,35.50
2017-07-09T17:32:47.937Z,35.93
2017-07-09T17:35:17.048Z,36.22
2017-07-09T17:37:45.731Z,36.16
2017-07-09T17:40:14.072Z,35.91
2017-07-09T17:42:42.403Z,35.91
2017-07-09T17:45:11.278Z,36.50
2017-07-09T17:47:39.633Z,36.56
2017-07-09T17:50:08.738Z,36.47
2017-07-09T17:52:38.276Z,36.43
2017-07-09T17:55:06.611Z,38.00
2017-07-09T17:57:34.970Z,37.90
2017-07-09T18:00:03.608Z,37.78
2017-07-09T18:02:31.938Z,37.57
2017-07-09T18:05:00.268Z,37.31
2017-07-09T18:07:28.903Z,37.60
2017-07-09T18:09:57.223Z,37.35
2017-07-09T18:12:25.567Z,37.80
2017-07-09T18:14:54.505Z,37.83
2017-07-09T18:17:22.869Z,37.87
2017-07-09T18:19:51.219Z,38.33
2017-07-09T18:22:19.893Z,38.92
2017-07-09T18:24:48.228Z,38.69
2017-07-09T18:27:16.558Z,39.17
2017-07-09T18:29:45.239Z,39.72
2017-07-09T18:32:13.594Z,39.29
2017-07-09T18:34:41.928Z,39.58
2017-07-09T18:37:10.825Z,39.44
2017-07-09T18:39:39.148Z,39.53
2017-07-09T18:42:07.496Z,39.61
2017-07-09T18:44:36.283Z,39.63
2017-07-09T18:47:04.633Z,40.02
2017-07-09T18:49:33.734Z,40.03
2017-07-09T18:52:02.538Z,40.60
2017-07-09T18:54:30.882Z,40.71
2017-07-09T18:56:59.274Z,41.24
2017-07-09T18:59:28.034Z,40.97
2017-07-09T19:01:56.381Z,41.03
2017-07-09T19:04:24.760Z,41.51
2017-07-09T19:06:53.625Z,41.52
2017-07-09T19:09:21.996Z,41.86
2017-07-09T19:11:51.095Z,42.29
2017-07-09T19:14:20.713Z,42.69
2017-07-09T19:16:49.073Z,42.36
2017-07-09T19:19:17.409Z,42.27
2017-07-09T19:21:46.572Z,42.29
2017-07-09T19:24:14.936Z,42.93
2017-07-09T19:26:44.060Z,42.70
2017-07-09T19:29:12.701Z,42.98
2017-07-09T19:31:41.814Z,43.39
2017-07-09T19:34:10.166Z,43.64
2017-07-09T19:36:38.871Z,43.87
2017-07-09T19:39:07.212Z,43.83
2017-07-09T19:41:35.542Z,44.08
2017-07-09T19:44:04.314Z,44.29
2017-07-09T19:46:32.747Z,44.14
2017-07-09T19:49:01.103Z,44.06
2017-07-09T19:51:29.743Z,44.75
2017-07-09T19:53:58.088Z,44.48
2017-07-09T19:56:26.466Z,44.86
2017-07-09T19:58:55.463Z,45.03
2017-07-09T20:01:23.805Z,44.76
2017-07-09T20:03:52.156Z,44.47
2017-07-09T20:06:21.587Z,44.42
2017-07-09T20:08:50.713Z,44.61
2017-07-09T20:11:19.051Z,44.69
2017-07-09T20:13:47.685Z,45.07
2017-07-09T20:16:16.008Z,45.18
2017-07-09T20:18:44.342Z,45.28
2017-07-09T20:21:13.011Z,45.64
2017-07-09T20:23:41.356Z,46.00
2017-07-09T20:26:09.690Z,46.27
2017-07-09T20:28:38.479Z,46.13
2017-07-09T20:31:06.848Z,45.64
2017-07-09T20:33:35.199Z,45.64
2017-07-09T20:36:03.849Z,45.62
2017-07-09T20:38:32.214Z,45.53
2017-07-09T20:41:00.544Z,46.06
2017-07-09T20:43:29.529Z,46.02
2017-07-09T20:45:57.857Z,46.17
2017-07-09T20:48:26.202Z,45.98
2017-07-09T20:50:55.073Z,45.82
2017-07-09T20:53:23.390Z,45.78
2017-07-09T20:55:51.754Z,46.32
2017-07-09T20:58:20.435Z,46.97
2017-07-09T21:00:48.779Z,46.77
2017-07-09T21:03:17.149Z,47.14
2017-07-09T21:05:45.792Z,47.05
2017-07-09T21:08:14.165Z,47.00
2017-07-09T21:10:42.493Z,47.00
2017-07-09T21:13:11.331Z,47.52
2017-07-09T21:15:39.688Z,47.92
2017-07-09T21:18:08.820Z,47.50
2017-07-09T21:20:37.579Z,48.05
2017-07-09T21:23:06.215Z,47.50
2017-07-09T21:25:34.563Z,47.79
2017-07-09T21:28:03.272Z,49.34
2017-07-09T21:30:31.599Z,49.04
2017-07-09T21:33:00.724Z,48.88
2017-07-09T21:35:29.703Z,49.12
2017-07-09T21:37:58.114Z,48.61
2017-07-09T21:40:26.454Z,49.21
2017-07-09T21:42:55.105Z,49.61
2017-07-09T21:45:23.453Z,49.68
2017-07-09T21:47:51.798Z,49.74
2017-07-09T21:50:21.211Z,49.82
2017-07-09T21:52:49.548Z,49.90
2017-07-09T21:55:17.878Z,50.40
2017-07-09T21:57:46.828Z,49.57
2017-07-09T22:00:15.195Z,50.06
2017-07-09T22:02:43.550Z,49.98
2017-07-09T22:05:12.224Z,50.13
2017-07-09T22:07:40.573Z,50.34
2017-07-09T22:10:08.908Z,50.03
2017-07-09T22:12:37.619Z,50.40
2017-07-09T22:15:05.989Z,51.66
2017-07-09T22:17:34.330Z,51.23
2017-07-09T22:20:03.104Z,51.83
2017-07-09T22:22:31.458Z,51.94
2017-07-09T22:25:00.111Z,51.94
2017-07-09T22:27:28.804Z,51.65
2017-07-09T22:29:57.156Z,51.60
2017-07-09T22:32:25.516Z,52.18
2017-07-09T22:34:54.323Z,52.36
2017-07-09T22:37:22.683Z,52.20
2017-07-09T22:39:51.072Z,51.96
2017-07-09T22:42:19.958Z,51.74
2017-07-09T22:44:48.338Z,52.28
2017-07-09T22:47:16.693Z,51.85
2017-07-09T22:49:45.603Z,52.84
2017-07-09T22:52:13.917Z,53.09
2017-07-09T22:54:42.234Z,53.63
2017-07-09T22:57:15.318Z,53.85
2017-07-09T22:59:43.688Z,53.67
2017-07-09T23:02:12.128Z,53.22
2017-07-09T23:04:40.987Z,53.30
2017-07-09T23:07:09.331Z,53.15
2017-07-09T23:09:37.655Z,53.47
2017-07-09T23:12:06.372Z,54.06
2017-07-09T23:14:34.706Z,53.99
2017-07-09T23:17:03.027Z,53.96
2017-07-09T23:19:31.889Z,52.84
2017-07-09T23:22:00.236Z,53.03
2017-07-09T23:24:28.578Z,53.49
2017-07-09T23:26:57.240Z,54.22
2017-07-09T23:29:25.608Z,54.53
2017-07-09T23:31:53.939Z,54.92
2017-07-09T23:34:22.654Z,54.99
2017-07-09T23:36:50.996Z,55.23
2017-07-09T23:39:19.326Z,55.18
2017-07-09T23:41:48.213Z,54.76
2017-07-09T23:44:16.564Z,54.36
2017-07-09T23:46:44.894Z,54.51
2017-07-09T23:49:13.547Z,54.80
2017-07-09T23:51:42.657Z,54.94
2017-07-09T23:54:10.987Z,55.35
2017-07-09T23:56:39.636Z,55.38
2017-07-09T23:59:08.214Z,55.95
